You are listening to:
ZNY Bermuda Sector - Hamilton, Bermuda

TXKF 241755Z 30024KT 9999 BKN042 16/07 Q1014

If stream doesn't start automatically press the play button
If stream stops then reload player then press play